createdAt,value
2022-09-07T00:00:56.494Z,100402.72
2022-09-07T00:06:00.113Z,100403.81
2022-09-07T00:11:05.770Z,100401.09
2022-09-07T00:16:12.715Z,100406.75
2022-09-07T00:21:17.978Z,100414.31
2022-09-07T00:26:23.446Z,100412.91
2022-09-07T00:31:29.862Z,100407.50
2022-09-07T00:36:33.518Z,100418.34
2022-09-07T00:41:37.131Z,100421.84
2022-09-07T00:46:42.378Z,100419.22
2022-09-07T00:51:51.558Z,100422.09
2022-09-07T00:56:55.201Z,100425.81
2022-09-07T01:02:00.941Z,100434.69
2022-09-07T01:07:05.229Z,100440.09
2022-09-07T01:12:09.593Z,100448.41
2022-09-07T01:17:22.617Z,100453.56
2022-09-07T01:22:52.731Z,100455.13
2022-09-07T01:28:10.726Z,100464.09
2022-09-07T01:33:33.393Z,100470.97
2022-09-07T01:38:41.853Z,100471.81
2022-09-07T01:43:54.006Z,100481.28
2022-09-07T01:49:03.425Z,100468.44
2022-09-07T01:54:11.556Z,100478.72
2022-09-07T01:59:23.922Z,100477.91
2022-09-07T02:04:36.110Z,100468.28
2022-09-07T02:09:47.994Z,100469.56
2022-09-07T02:14:56.691Z,100475.75
2022-09-07T02:20:09.954Z,100480.59
2022-09-07T02:25:21.666Z,100487.38
2022-09-07T02:30:26.947Z,100487.50
2022-09-07T02:35:30.688Z,100503.50
2022-09-07T02:40:33.549Z,100494.31
2022-09-07T02:45:51.289Z,100492.19
2022-09-07T02:51:09.638Z,100511.44
2022-09-07T02:56:27.588Z,100501.69
2022-09-07T03:01:40.418Z,100518.53
2022-09-07T03:06:48.775Z,100524.56
2022-09-07T03:11:52.632Z,100528.06
2022-09-07T03:16:57.402Z,100534.25
2022-09-07T03:22:01.218Z,100536.19
2022-09-07T03:27:04.905Z,100540.84
2022-09-07T03:32:11.447Z,100559.44
2022-09-07T03:37:15.220Z,100563.69
2022-09-07T03:42:18.817Z,100573.63
2022-09-07T03:47:24.071Z,100578.16
2022-09-07T03:52:27.683Z,100597.63
2022-09-07T03:57:31.290Z,100597.94
2022-09-07T04:02:36.564Z,100610.31
2022-09-07T04:07:40.204Z,100616.06
2022-09-07T04:12:43.761Z,100633.16
2022-09-07T04:17:48.975Z,100626.03
2022-09-07T04:22:54.293Z,100632.13
2022-09-07T04:27:58.065Z,100642.63
2022-09-07T04:33:03.798Z,100646.06
2022-09-07T04:38:08.365Z,100637.06
2022-09-07T04:43:11.951Z,100645.03
2022-09-07T04:48:17.230Z,100655.75
2022-09-07T04:53:20.837Z,100663.91
2022-09-07T04:58:24.571Z,100654.72
2022-09-07T05:03:30.199Z,100644.31
2022-09-07T05:08:38.391Z,100644.75
2022-09-07T05:13:42.226Z,100649.97
2022-09-07T05:18:50.890Z,100636.19
2022-09-07T05:23:56.069Z,100628.72
2022-09-07T05:39:32.524Z,100640.56
2022-09-07T05:49:48.494Z,100647.47
2022-09-07T05:54:54.332Z,100649.53
2022-09-07T06:00:00.207Z,100647.53
2022-09-07T06:05:05.807Z,100649.63
2022-09-07T06:15:34.131Z,100654.94
2022-09-07T06:20:39.404Z,100659.81
2022-09-07T06:25:49.878Z,100657.75
2022-09-07T06:30:53.443Z,100662.66
2022-09-07T06:36:00.343Z,100665.66
2022-09-07T06:51:53.666Z,100660.81
2022-09-07T06:56:57.234Z,100664.94
2022-09-07T07:02:00.850Z,100662.34
2022-09-07T07:07:06.135Z,100667.06
2022-09-07T07:12:09.938Z,100670.28
2022-09-07T07:17:13.689Z,100682.78
2022-09-07T07:22:42.924Z,100695.50
2022-09-07T07:27:41.733Z,100691.81
2022-09-07T07:32:46.175Z,100699.94
2022-09-07T07:43:17.020Z,100704.78
2022-09-07T07:48:20.558Z,100689.28
2022-09-07T07:53:42.287Z,100694.44
2022-09-07T07:58:47.767Z,100690.97
2022-09-07T08:03:51.343Z,100699.34
2022-09-07T08:08:56.847Z,100704.22
2022-09-07T08:14:00.404Z,100704.38
2022-09-07T08:19:03.940Z,100712.47
2022-09-07T08:24:10.494Z,100724.09
2022-09-07T08:29:14.014Z,100721.41
2022-09-07T08:34:17.976Z,100725.88
2022-09-07T08:39:24.828Z,100729.06
2022-09-07T08:44:32.995Z,100752.06
2022-09-07T08:49:46.632Z,100744.41
2022-09-07T08:55:02.126Z,100761.59
2022-09-07T09:00:07.977Z,100768.22
2022-09-07T09:05:25.436Z,100760.69
2022-09-07T09:10:40.742Z,100761.19
2022-09-07T09:15:49.718Z,100746.16
2022-09-07T09:20:56.681Z,100748.44
2022-09-07T09:26:08.380Z,100758.53
2022-09-07T09:31:19.850Z,100756.22
2022-09-07T09:36:33.174Z,100750.75
2022-09-07T09:41:39.905Z,100735.09
2022-09-07T09:47:29.535Z,100738.97
2022-09-07T09:52:42.990Z,100742.38
2022-09-07T10:08:55.827Z,100749.63
2022-09-07T10:14:01.113Z,100743.25
2022-09-07T10:19:04.692Z,100728.03
2022-09-07T10:24:16.267Z,100735.38
2022-09-07T10:29:28.869Z,100735.41
2022-09-07T10:34:40.170Z,100735.41
2022-09-07T10:39:46.528Z,100729.66
2022-09-07T10:45:01.717Z,100723.03
2022-09-07T10:50:24.480Z,100730.38
2022-09-07T10:55:33.603Z,100724.84
2022-09-07T11:00:58.089Z,100719.63
2022-09-07T11:06:11.510Z,100731.75
2022-09-07T11:12:00.627Z,100722.22
2022-09-07T11:16:53.022Z,100723.41
2022-09-07T11:22:01.624Z,100727.31
2022-09-07T11:27:14.435Z,100726.22
2022-09-07T11:32:23.600Z,100729.97
2022-09-07T11:37:31.679Z,100743.97
2022-09-07T11:42:43.596Z,100747.47
2022-09-07T11:47:55.658Z,100749.56
2022-09-07T11:53:04.564Z,100753.63
2022-09-07T11:58:30.880Z,100758.81
2022-09-07T12:04:14.631Z,100769.34
2022-09-07T12:09:34.819Z,100768.25
2022-09-07T12:14:46.330Z,100770.72
2022-09-07T12:20:14.494Z,100780.59
2022-09-07T12:25:19.645Z,100786.56
2022-09-07T12:30:55.249Z,100787.91
2022-09-07T12:36:01.245Z,100795.06
2022-09-07T12:41:06.047Z,100791.03
2022-09-07T12:46:20.543Z,100793.47
2022-09-07T13:02:51.541Z,100803.03
2022-09-07T13:08:30.085Z,100814.94
2022-09-07T13:18:57.836Z,100829.06
2022-09-07T13:24:47.701Z,100827.75
2022-09-07T13:29:56.571Z,100830.63
2022-09-07T13:35:14.117Z,100835.06
2022-09-07T13:40:21.749Z,100843.88
2022-09-07T13:45:32.414Z,100843.53
2022-09-07T13:50:45.346Z,100840.00
2022-09-07T13:55:57.556Z,100852.97
2022-09-07T14:01:06.642Z,100857.00
2022-09-07T14:06:33.945Z,100875.78
2022-09-07T14:11:43.175Z,100889.25
2022-09-07T14:16:50.500Z,100901.56
2022-09-07T14:21:59.246Z,100904.06
2022-09-07T14:27:03.803Z,100904.91
2022-09-07T14:32:15.756Z,100903.53
2022-09-07T14:37:21.430Z,100917.72
2022-09-07T14:42:25.685Z,100916.28
2022-09-07T14:47:33.341Z,100928.97
2022-09-07T14:52:43.739Z,100931.19
2022-09-07T14:58:25.178Z,100930.16
2022-09-07T15:03:33.107Z,100937.31
2022-09-07T15:08:39.529Z,100946.97
2022-09-07T15:13:45.537Z,100954.59
2022-09-07T15:18:55.917Z,100956.00
2022-09-07T15:24:00.966Z,100961.09
2022-09-07T15:29:12.073Z,100970.56
2022-09-07T15:34:18.838Z,100968.94
2022-09-07T15:39:25.278Z,100985.00
2022-09-07T15:44:29.230Z,100985.34
2022-09-07T15:49:34.522Z,100994.31
2022-09-07T15:54:39.832Z,101002.81
2022-09-07T15:59:43.586Z,101000.72
2022-09-07T16:04:48.943Z,101004.25
2022-09-07T16:09:52.737Z,101016.16
2022-09-07T16:14:56.691Z,101022.63
2022-09-07T16:20:02.487Z,101029.94
2022-09-07T16:25:06.708Z,101035.34
2022-09-07T16:30:09.952Z,101041.84
2022-09-07T16:35:15.250Z,101040.47
2022-09-07T16:40:18.812Z,101045.34
2022-09-07T16:51:01.669Z,101054.81
2022-09-07T16:56:07.766Z,101051.09
2022-09-07T17:01:14.103Z,101051.13
2022-09-07T17:06:20.953Z,101060.00
2022-09-07T17:11:26.711Z,101053.69
2022-09-07T17:16:32.616Z,101060.38
2022-09-07T17:21:39.728Z,101068.63
2022-09-07T17:26:43.676Z,101069.97
2022-09-07T17:37:12.399Z,101083.84
2022-09-07T17:42:16.923Z,101090.53
2022-09-07T17:47:22.340Z,101093.91
2022-09-07T17:52:27.847Z,101092.44
2022-09-07T17:57:32.216Z,101090.94
2022-09-07T18:02:35.739Z,101085.81
2022-09-07T18:07:40.158Z,101079.25
2022-09-07T18:12:44.421Z,101070.03
2022-09-07T18:17:50.920Z,101066.00
2022-09-07T18:22:57.758Z,101071.38
2022-09-07T18:33:25.442Z,101073.16
2022-09-07T18:38:31.041Z,101079.63
2022-09-07T18:43:36.151Z,101072.22
2022-09-07T18:48:40.391Z,101068.78
2022-09-07T18:53:45.787Z,101065.94
2022-09-07T18:58:49.619Z,101061.75
2022-09-07T19:03:56.977Z,101058.59
2022-09-07T19:09:02.183Z,101060.47
2022-09-07T19:14:05.715Z,101056.00
2022-09-07T19:19:10.923Z,101061.13
2022-09-07T19:24:17.478Z,101050.94
2022-09-07T19:29:21.042Z,101048.22
2022-09-07T19:34:24.561Z,101034.25
2022-09-07T19:39:30.150Z,101031.91
2022-09-07T19:44:33.777Z,101031.72
2022-09-07T19:49:37.327Z,101021.56
2022-09-07T19:54:42.498Z,101023.75
2022-09-07T19:59:46.001Z,101013.28
2022-09-07T20:04:49.554Z,100995.69
2022-09-07T20:09:55.649Z,100995.38
2022-09-07T20:14:59.200Z,100989.78
2022-09-07T20:20:03.002Z,100999.38
2022-09-07T20:25:12.996Z,100991.50
2022-09-07T20:30:16.943Z,100982.63
2022-09-07T20:35:20.490Z,100980.63
2022-09-07T20:40:25.763Z,100981.38
2022-09-07T20:45:31.836Z,100976.16
2022-09-07T20:50:35.636Z,100963.19
2022-09-07T20:55:40.829Z,100959.56
2022-09-07T21:00:50.658Z,100952.13
2022-09-07T21:05:54.299Z,100945.03
2022-09-07T21:10:59.482Z,100951.13
2022-09-07T21:16:05.747Z,100941.25
2022-09-07T21:21:24.454Z,100939.56
2022-09-07T21:26:30.321Z,100930.69
2022-09-07T21:31:34.476Z,100924.50
2022-09-07T21:36:38.252Z,100918.69
2022-09-07T21:41:43.743Z,100904.72
2022-09-07T21:46:47.470Z,100896.94
2022-09-07T21:51:50.999Z,100889.53
2022-09-07T21:56:56.140Z,100875.84
2022-09-07T22:01:59.730Z,100868.22
2022-09-07T22:07:03.348Z,100851.47
2022-09-07T22:12:08.917Z,100840.00
2022-09-07T22:17:12.476Z,100828.06
2022-09-07T22:22:16.047Z,100817.16
2022-09-07T22:27:21.236Z,100812.56
2022-09-07T22:32:24.852Z,100803.56
2022-09-07T22:37:28.418Z,100804.03
2022-09-07T22:42:33.674Z,100804.19
2022-09-07T22:47:37.197Z,100809.47
2022-09-07T22:52:40.768Z,100792.94
2022-09-07T22:57:47.551Z,100781.50
2022-09-07T23:02:51.106Z,100774.34
2022-09-07T23:07:54.650Z,100771.47
2022-09-07T23:12:59.811Z,100763.34
2022-09-07T23:18:03.336Z,100770.72
2022-09-07T23:23:07.829Z,100764.41
2022-09-07T23:28:13.772Z,100769.63
2022-09-07T23:33:17.383Z,100775.84
2022-09-07T23:38:20.935Z,100772.00
2022-09-07T23:43:27.526Z,100770.00
2022-09-07T23:48:31.349Z,100765.25
2022-09-07T23:53:35.077Z,100779.53
2022-09-07T23:58:41.296Z,100773.56
